createdAt,value
2022-12-03T00:00:28.161Z,80.34
2022-12-03T00:02:54.782Z,80.42
2022-12-03T00:05:21.268Z,80.55
2022-12-03T00:07:47.708Z,80.63
2022-12-03T00:10:14.255Z,80.57
2022-12-03T00:12:40.674Z,80.84
2022-12-03T00:15:07.800Z,80.61
2022-12-03T00:17:34.172Z,80.45
2022-12-03T00:20:00.566Z,80.50
2022-12-03T00:22:26.962Z,80.51
2022-12-03T00:24:53.760Z,80.90
2022-12-03T00:27:20.359Z,80.17
2022-12-03T00:29:46.789Z,80.00
2022-12-03T00:32:14.070Z,80.10
2022-12-03T00:34:40.430Z,80.20
2022-12-03T00:37:06.890Z,80.44
2022-12-03T00:39:33.249Z,80.10
2022-12-03T00:41:59.621Z,80.25
2022-12-03T00:44:26.126Z,80.03
2022-12-03T00:46:52.514Z,80.47
2022-12-03T00:49:18.989Z,80.82
2022-12-03T00:51:45.430Z,80.48
2022-12-03T00:54:12.059Z,81.35
2022-12-03T00:56:38.476Z,80.94
2022-12-03T00:59:04.914Z,80.57
2022-12-03T01:01:31.372Z,80.21
2022-12-03T01:03:57.938Z,80.25
2022-12-03T01:06:24.305Z,80.31
2022-12-03T01:08:50.641Z,79.99
2022-12-03T01:11:40.114Z,80.30
2022-12-03T01:14:17.607Z,80.00
2022-12-03T01:16:44.410Z,79.83
2022-12-03T01:19:15.670Z,79.88
2022-12-03T01:21:43.005Z,80.21
2022-12-03T01:24:09.469Z,80.69
2022-12-03T01:26:35.956Z,80.06
2022-12-03T01:29:02.354Z,79.96
2022-12-03T01:31:47.771Z,80.50
2022-12-03T01:34:14.242Z,80.72
2022-12-03T01:36:41.027Z,80.38
2022-12-03T01:39:07.648Z,80.43
2022-12-03T01:41:35.717Z,80.34
2022-12-03T01:44:04.489Z,80.47
2022-12-03T01:46:41.841Z,80.60
2022-12-03T01:49:15.226Z,80.07
2022-12-03T01:51:41.698Z,80.03
2022-12-03T01:54:16.463Z,80.23
2022-12-03T01:56:43.237Z,80.43
2022-12-03T01:59:15.304Z,80.21
2022-12-03T02:01:41.702Z,80.34
2022-12-03T02:04:12.162Z,80.03
2022-12-03T02:06:38.719Z,80.18
2022-12-03T02:09:08.406Z,80.51
2022-12-03T02:11:43.535Z,79.99
2022-12-03T02:14:13.398Z,80.11
2022-12-03T02:16:41.915Z,80.19
2022-12-03T02:19:28.379Z,80.25
2022-12-03T02:22:05.139Z,79.84
2022-12-03T02:25:15.340Z,79.95
2022-12-03T02:27:42.461Z,80.03
2022-12-03T02:30:10.381Z,79.81
2022-12-03T02:32:37.319Z,79.97
2022-12-03T02:35:04.358Z,79.97
2022-12-03T02:37:34.851Z,79.62
2022-12-03T02:40:07.851Z,79.95
2022-12-03T02:42:37.266Z,79.91
2022-12-03T02:45:11.047Z,79.75
2022-12-03T02:48:09.235Z,79.61
2022-12-03T02:50:40.070Z,79.79
2022-12-03T02:53:09.544Z,79.67
2022-12-03T02:55:37.562Z,80.14
2022-12-03T02:58:05.003Z,79.72
2022-12-03T03:00:31.770Z,80.25
2022-12-03T03:02:58.405Z,79.92
2022-12-03T03:05:25.093Z,80.13
2022-12-03T03:07:51.884Z,79.86
2022-12-03T03:10:22.132Z,79.58
2022-12-03T03:12:49.333Z,79.67
2022-12-03T03:15:16.025Z,79.81
2022-12-03T03:17:42.818Z,79.51
2022-12-03T03:20:11.318Z,79.92
2022-12-03T03:22:41.315Z,79.25
2022-12-03T03:25:12.199Z,79.20
2022-12-03T03:27:41.163Z,79.77
2022-12-03T03:30:09.521Z,79.40
2022-12-03T03:32:37.123Z,79.78
2022-12-03T03:35:06.118Z,80.18
2022-12-03T03:37:32.673Z,79.70
2022-12-03T03:39:59.166Z,80.32
2022-12-03T03:42:25.689Z,80.48
2022-12-03T03:44:52.387Z,80.53
2022-12-03T03:47:20.052Z,80.91
2022-12-03T03:49:47.860Z,81.21
2022-12-03T03:52:14.150Z,81.28
2022-12-03T03:54:40.522Z,81.77
2022-12-03T03:57:07.268Z,81.88
2022-12-03T03:59:33.726Z,82.73
2022-12-03T04:02:00.050Z,82.03
2022-12-03T04:04:30.374Z,82.25
2022-12-03T04:06:56.881Z,82.37
2022-12-03T04:09:23.297Z,82.13
2022-12-03T04:12:08.619Z,82.58
2022-12-03T04:14:34.950Z,82.76
2022-12-03T04:17:01.312Z,82.80
2022-12-03T04:19:27.716Z,82.89
2022-12-03T04:22:12.520Z,82.83
2022-12-03T04:24:38.892Z,82.79
2022-12-03T04:27:23.681Z,83.15
2022-12-03T04:29:50.001Z,83.24
2022-12-03T04:32:35.217Z,83.20
2022-12-03T04:35:20.206Z,83.42
2022-12-03T04:37:46.605Z,83.12
2022-12-03T04:40:31.822Z,83.34
2022-12-03T04:42:58.145Z,83.52
2022-12-03T04:45:24.512Z,83.81
2022-12-03T04:47:50.849Z,82.90
2022-12-03T04:50:17.174Z,83.30
2022-12-03T04:52:43.595Z,83.37
2022-12-03T04:55:10.082Z,83.69
2022-12-03T04:57:36.462Z,83.39
2022-12-03T05:00:05.072Z,83.11
2022-12-03T05:02:31.480Z,83.03
2022-12-03T05:07:33.141Z,82.93
2022-12-03T05:09:59.530Z,83.01
2022-12-03T05:12:25.869Z,82.89
2022-12-03T05:14:52.570Z,82.73
2022-12-03T05:17:19.013Z,82.67
2022-12-03T05:20:04.219Z,82.86
2022-12-03T05:22:30.561Z,82.85
2022-12-03T05:24:57.046Z,82.39
2022-12-03T05:27:24.262Z,82.63
2022-12-03T05:29:51.132Z,82.56
2022-12-03T05:32:17.529Z,82.40
2022-12-03T05:34:43.954Z,82.09
2022-12-03T05:37:10.311Z,82.27
2022-12-03T05:39:36.845Z,82.13
2022-12-03T05:42:21.954Z,82.05
2022-12-03T05:44:48.286Z,82.01
2022-12-03T05:47:14.860Z,82.06
2022-12-03T05:49:41.378Z,82.12
2022-12-03T05:52:07.925Z,82.00
2022-12-03T05:54:34.250Z,82.33
2022-12-03T05:57:00.676Z,82.30
2022-12-03T05:59:27.161Z,82.27
2022-12-03T06:01:53.492Z,82.12
2022-12-03T06:04:19.853Z,81.97
2022-12-03T06:06:46.193Z,81.69
2022-12-03T06:09:12.506Z,81.84
2022-12-03T06:11:40.168Z,82.35
2022-12-03T06:14:06.643Z,82.17
2022-12-03T06:16:33.024Z,82.14
2022-12-03T06:18:59.457Z,81.99
2022-12-03T06:21:25.813Z,82.11
2022-12-03T06:23:52.150Z,82.26
2022-12-03T06:26:18.570Z,82.14
2022-12-03T06:28:46.390Z,81.85
2022-12-03T06:31:13.265Z,81.94
2022-12-03T06:33:39.767Z,81.48
2022-12-03T06:36:06.619Z,81.89
2022-12-03T06:38:32.975Z,81.65
2022-12-03T06:40:59.424Z,81.57
2022-12-03T06:43:40.946Z,81.85
2022-12-03T06:46:07.331Z,81.22
2022-12-03T06:48:33.677Z,81.38
2022-12-03T06:51:00.140Z,81.19
2022-12-03T06:53:26.473Z,81.21
2022-12-03T06:55:52.910Z,81.17
2022-12-03T06:58:19.234Z,81.39
2022-12-03T07:00:45.848Z,81.07
2022-12-03T07:03:12.337Z,81.27
2022-12-03T07:13:36.377Z,80.88
2022-12-03T07:18:38.039Z,81.24
2022-12-03T07:21:04.428Z,81.22
2022-12-03T07:23:30.747Z,81.34
2022-12-03T07:25:57.135Z,81.26
2022-12-03T07:28:23.449Z,81.13
2022-12-03T07:30:49.952Z,81.06
2022-12-03T07:33:16.280Z,81.09
2022-12-03T07:35:42.706Z,81.19
2022-12-03T07:38:09.035Z,81.21
2022-12-03T07:40:35.362Z,80.95
2022-12-03T07:43:01.805Z,81.28
2022-12-03T07:45:28.250Z,81.11
2022-12-03T07:47:54.598Z,81.19
2022-12-03T07:50:20.964Z,81.10
2022-12-03T07:52:47.397Z,80.94
2022-12-03T07:55:13.982Z,80.79
2022-12-03T07:57:40.365Z,80.17
2022-12-03T08:00:07.566Z,80.65
2022-12-03T08:02:34.000Z,80.53
2022-12-03T08:05:00.413Z,80.64
2022-12-03T08:07:26.767Z,80.51
2022-12-03T08:09:53.133Z,80.42
2022-12-03T08:12:42.852Z,80.72
2022-12-03T08:15:13.908Z,80.63
2022-12-03T08:17:42.197Z,80.13
2022-12-03T08:20:14.384Z,80.27
2022-12-03T08:22:42.569Z,79.79
2022-12-03T08:25:35.463Z,79.26
2022-12-03T08:28:12.048Z,80.19
2022-12-03T08:30:39.934Z,79.85
2022-12-03T08:33:13.416Z,79.09
2022-12-03T08:35:44.693Z,79.25
2022-12-03T08:38:12.847Z,79.36
2022-12-03T08:40:41.569Z,79.33
2022-12-03T08:43:26.091Z,79.00
2022-12-03T08:45:57.022Z,78.62
2022-12-03T08:48:36.674Z,79.03
2022-12-03T08:51:11.089Z,79.16
2022-12-03T08:53:42.955Z,79.02
2022-12-03T08:56:23.942Z,78.91
2022-12-03T08:59:21.174Z,78.46
2022-12-03T09:01:48.832Z,78.71
2022-12-03T09:04:27.584Z,79.23
2022-12-03T09:06:54.756Z,79.15
2022-12-03T09:09:21.929Z,79.01
2022-12-03T09:11:48.415Z,79.28
2022-12-03T09:14:18.474Z,79.18
2022-12-03T09:16:45.429Z,79.55
2022-12-03T09:19:11.872Z,79.13
2022-12-03T09:21:38.225Z,79.00
2022-12-03T09:24:04.851Z,79.16
2022-12-03T09:26:31.348Z,79.21
2022-12-03T09:28:57.725Z,78.82
2022-12-03T09:31:24.386Z,79.04
2022-12-03T09:33:51.005Z,78.83
2022-12-03T09:36:17.397Z,78.53
2022-12-03T09:38:47.704Z,78.79
2022-12-03T09:41:14.682Z,79.04
2022-12-03T09:44:03.487Z,78.93
2022-12-03T09:46:28.979Z,78.62
2022-12-03T09:48:55.462Z,79.20
2022-12-03T09:51:22.609Z,80.60
2022-12-03T09:53:49.150Z,82.92
2022-12-03T09:56:20.404Z,79.25
2022-12-03T09:58:46.925Z,78.74
2022-12-03T10:01:15.170Z,77.94
2022-12-03T10:03:48.689Z,78.12
2022-12-03T10:06:21.250Z,78.14
2022-12-03T10:08:49.985Z,77.94
2022-12-03T10:11:18.633Z,77.68
2022-12-03T10:13:46.028Z,77.57
2022-12-03T10:16:15.430Z,77.26
2022-12-03T10:18:47.141Z,77.52
2022-12-03T10:21:20.307Z,78.20
2022-12-03T10:23:50.768Z,78.56
2022-12-03T10:26:35.811Z,78.74
2022-12-03T10:29:02.150Z,78.11
2022-12-03T10:31:35.629Z,78.34
2022-12-03T10:34:01.994Z,78.16
2022-12-03T10:36:28.377Z,78.20
2022-12-03T10:39:15.808Z,78.73
2022-12-03T10:41:44.143Z,78.50
2022-12-03T10:44:25.942Z,78.11
2022-12-03T10:47:13.263Z,78.31
2022-12-03T10:49:41.571Z,78.56
2022-12-03T10:52:25.709Z,78.17
2022-12-03T10:54:52.759Z,77.71
2022-12-03T10:57:19.500Z,78.03
2022-12-03T10:59:45.875Z,78.03
2022-12-03T11:02:19.955Z,77.43
2022-12-03T11:04:46.797Z,77.48
2022-12-03T11:07:16.040Z,77.55
2022-12-03T11:09:45.310Z,77.09
2022-12-03T11:12:22.030Z,76.86
2022-12-03T11:14:54.919Z,77.14
2022-12-03T11:17:42.867Z,77.40
2022-12-03T11:20:10.346Z,77.46
2022-12-03T11:22:41.388Z,77.62
2022-12-03T11:25:26.036Z,77.60
2022-12-03T11:28:13.486Z,76.39
2022-12-03T11:30:49.141Z,76.11
2022-12-03T11:33:32.934Z,74.84
2022-12-03T11:36:08.099Z,75.93
2022-12-03T11:38:37.491Z,76.10
2022-12-03T11:41:23.782Z,75.70
2022-12-03T11:43:53.168Z,76.67
2022-12-03T11:46:36.291Z,76.58
2022-12-03T11:49:18.744Z,75.16
2022-12-03T11:51:45.251Z,74.12
2022-12-03T11:54:16.368Z,75.71
2022-12-03T11:56:48.953Z,75.29
2022-12-03T11:59:17.236Z,75.64
2022-12-03T12:01:44.470Z,75.71
2022-12-03T12:04:30.001Z,76.23
2022-12-03T12:10:48.450Z,76.02
2022-12-03T12:13:30.195Z,75.99
2022-12-03T12:16:05.074Z,76.28
2022-12-03T12:18:38.572Z,75.29
2022-12-03T12:21:43.698Z,76.13
2022-12-03T12:24:30.994Z,76.12
2022-12-03T12:27:06.135Z,75.83
2022-12-03T12:29:32.573Z,75.64
2022-12-03T12:32:15.120Z,75.52
2022-12-03T12:34:44.612Z,75.71
2022-12-03T12:37:28.145Z,76.25
2022-12-03T12:39:56.910Z,76.34
2022-12-03T12:42:34.826Z,75.67
2022-12-03T12:45:16.531Z,75.34
2022-12-03T12:47:49.903Z,74.76
2022-12-03T12:50:18.296Z,75.27
2022-12-03T12:52:51.546Z,75.84
2022-12-03T12:55:18.953Z,75.23
2022-12-03T12:57:45.359Z,75.42
2022-12-03T13:00:23.336Z,74.98
2022-12-03T13:02:55.202Z,75.64
2022-12-03T13:05:21.849Z,74.71
2022-12-03T13:07:48.369Z,75.75
2022-12-03T13:10:24.413Z,74.83
2022-12-03T13:12:50.867Z,75.53
2022-12-03T13:15:35.810Z,74.04
2022-12-03T13:18:17.870Z,74.13
2022-12-03T13:20:44.211Z,74.35
2022-12-03T13:23:25.990Z,74.66
2022-12-03T13:26:09.255Z,74.35
2022-12-03T13:28:41.714Z,74.57
2022-12-03T13:31:26.130Z,74.29
2022-12-03T13:33:53.622Z,74.80
2022-12-03T13:36:22.472Z,75.29
2022-12-03T13:38:49.280Z,75.43
2022-12-03T13:41:38.256Z,75.34
2022-12-03T13:44:17.955Z,75.84
2022-12-03T13:46:45.433Z,75.37
2022-12-03T13:49:20.011Z,76.05
2022-12-03T13:51:47.234Z,76.23
2022-12-03T13:54:20.343Z,75.49
2022-12-03T13:56:46.845Z,75.46
2022-12-03T13:59:14.120Z,75.12
2022-12-03T14:01:40.699Z,75.61
2022-12-03T14:04:07.243Z,75.21
2022-12-03T14:06:33.822Z,75.30
2022-12-03T14:09:00.378Z,75.55
2022-12-03T14:11:45.119Z,75.91
2022-12-03T14:14:11.623Z,75.46
2022-12-03T14:16:38.031Z,75.77
2022-12-03T14:19:04.569Z,75.62
2022-12-03T14:21:30.938Z,76.05
2022-12-03T14:23:57.303Z,76.30
2022-12-03T14:26:23.666Z,75.93
2022-12-03T14:28:50.128Z,76.07
2022-12-03T14:31:16.554Z,75.50
2022-12-03T14:33:43.002Z,75.72
2022-12-03T14:36:09.537Z,76.57
2022-12-03T14:38:35.882Z,76.50
2022-12-03T14:41:02.383Z,76.40
2022-12-03T14:43:28.734Z,76.71
2022-12-03T14:45:55.273Z,77.37
2022-12-03T14:48:21.739Z,76.94
2022-12-03T14:50:48.191Z,77.11
2022-12-03T14:53:14.530Z,76.85
2022-12-03T14:55:40.959Z,76.69
2022-12-03T14:58:07.283Z,76.31
2022-12-03T15:00:33.704Z,76.80
2022-12-03T15:03:00.274Z,76.99
2022-12-03T15:05:28.764Z,77.05
2022-12-03T15:07:55.493Z,77.37
2022-12-03T15:10:21.921Z,77.24
2022-12-03T15:12:48.345Z,77.58
2022-12-03T15:15:14.989Z,77.58
2022-12-03T15:17:41.888Z,77.43
2022-12-03T15:20:08.814Z,77.69
2022-12-03T15:22:35.258Z,78.06
2022-12-03T15:25:03.338Z,77.54
2022-12-03T15:27:29.810Z,77.85
2022-12-03T15:29:56.472Z,78.11
2022-12-03T15:32:23.127Z,78.01
2022-12-03T15:34:51.277Z,77.81
2022-12-03T15:37:17.714Z,77.79
2022-12-03T15:39:48.375Z,77.42
2022-12-03T15:42:15.406Z,77.73
2022-12-03T15:44:41.737Z,77.52
2022-12-03T15:47:08.174Z,77.72
2022-12-03T15:49:34.582Z,77.83
2022-12-03T15:52:00.927Z,77.97
2022-12-03T15:54:27.232Z,78.02
2022-12-03T15:56:57.290Z,78.11
2022-12-03T15:59:24.042Z,78.05
2022-12-03T16:01:50.485Z,77.74
2022-12-03T16:04:17.175Z,77.98
2022-12-03T16:06:43.489Z,77.63
2022-12-03T16:09:09.921Z,77.85
2022-12-03T16:11:36.250Z,77.33
2022-12-03T16:14:02.601Z,77.32
2022-12-03T16:16:29.147Z,77.62
2022-12-03T16:18:55.544Z,77.31
2022-12-03T16:21:26.484Z,77.40
2022-12-03T16:23:53.637Z,77.69
2022-12-03T16:26:19.940Z,77.74
2022-12-03T16:28:46.303Z,77.68
2022-12-03T16:31:12.733Z,77.73
2022-12-03T16:33:39.105Z,77.37
2022-12-03T16:36:05.617Z,77.55
2022-12-03T16:38:33.542Z,77.79
2022-12-03T16:41:01.469Z,77.37
2022-12-03T16:43:28.173Z,77.60
2022-12-03T16:46:21.051Z,77.64
2022-12-03T16:48:48.223Z,78.02
2022-12-03T16:51:15.189Z,77.85
2022-12-03T16:53:41.652Z,77.78
2022-12-03T16:56:08.827Z,77.59
2022-12-03T16:58:35.316Z,78.19
2022-12-03T17:01:01.726Z,78.10
2022-12-03T17:03:33.607Z,77.86
2022-12-03T17:06:00.795Z,78.38
2022-12-03T17:08:27.213Z,78.03
2022-12-03T17:10:53.613Z,77.72
2022-12-03T17:13:20.100Z,78.05
2022-12-03T17:15:46.504Z,77.31
2022-12-03T17:18:12.879Z,78.10
2022-12-03T17:20:39.184Z,78.14
2022-12-03T17:23:05.491Z,78.53
2022-12-03T17:25:32.025Z,77.77
2022-12-03T17:27:58.405Z,77.70
2022-12-03T17:30:24.752Z,77.78
2022-12-03T17:32:51.084Z,77.75
2022-12-03T17:35:18.383Z,77.78
2022-12-03T17:37:45.131Z,77.58
2022-12-03T17:40:14.045Z,77.85
2022-12-03T17:42:40.555Z,77.64
2022-12-03T17:45:07.620Z,77.31
2022-12-03T17:47:34.055Z,77.56
2022-12-03T17:50:00.524Z,77.41
2022-12-03T17:52:26.935Z,77.27
2022-12-03T17:55:10.760Z,77.65
2022-12-03T17:57:39.365Z,77.42
2022-12-03T18:00:06.391Z,77.41
2022-12-03T18:02:32.750Z,77.27
2022-12-03T18:04:59.336Z,77.27
2022-12-03T18:07:25.749Z,77.69
2022-12-03T18:09:53.330Z,77.85
2022-12-03T18:12:20.020Z,77.82
2022-12-03T18:14:46.370Z,77.97
2022-12-03T18:17:13.871Z,77.58
2022-12-03T18:19:40.282Z,77.57
2022-12-03T18:22:06.626Z,77.82
2022-12-03T18:24:33.331Z,78.23
2022-12-03T18:26:59.673Z,77.42
2022-12-03T18:29:26.154Z,78.05
2022-12-03T18:31:52.743Z,77.75
2022-12-03T18:34:19.143Z,77.97
2022-12-03T18:36:45.819Z,77.72
2022-12-03T18:39:22.953Z,77.79
2022-12-03T18:41:49.417Z,77.87
2022-12-03T18:44:15.856Z,77.71
2022-12-03T18:46:53.314Z,77.70
2022-12-03T18:49:20.915Z,78.04
2022-12-03T18:51:48.441Z,77.81
2022-12-03T18:54:15.405Z,77.65
2022-12-03T18:56:41.941Z,77.77
2022-12-03T18:59:09.076Z,77.60
2022-12-03T19:01:35.642Z,77.32
2022-12-03T19:04:02.128Z,77.05
2022-12-03T19:06:30.348Z,77.03
2022-12-03T19:08:56.837Z,77.48
2022-12-03T19:11:23.423Z,77.53
2022-12-03T19:13:49.898Z,77.14
2022-12-03T19:16:17.130Z,77.03
2022-12-03T19:18:44.211Z,77.33
2022-12-03T19:21:13.578Z,77.40
2022-12-03T19:23:40.031Z,77.47
2022-12-03T19:26:08.314Z,77.69
2022-12-03T19:28:35.317Z,77.53
2022-12-03T19:31:08.608Z,77.24
2022-12-03T19:33:35.575Z,77.54
2022-12-03T19:36:04.318Z,77.57
2022-12-03T19:38:31.539Z,78.08
2022-12-03T19:41:09.178Z,78.31
2022-12-03T19:43:36.803Z,78.41
2022-12-03T19:46:04.692Z,78.55
2022-12-03T19:48:32.195Z,77.80
2022-12-03T19:51:19.802Z,78.28
2022-12-03T19:53:46.048Z,78.63
2022-12-03T19:56:18.389Z,78.76
2022-12-03T19:58:46.377Z,78.74
2022-12-03T20:01:19.333Z,79.08
2022-12-03T20:03:48.073Z,79.21
2022-12-03T20:06:16.405Z,79.10
2022-12-03T20:08:43.038Z,78.92
2022-12-03T20:11:15.406Z,78.78
2022-12-03T20:13:42.889Z,79.03
2022-12-03T20:16:12.573Z,78.78
2022-12-03T20:18:40.456Z,78.63
2022-12-03T20:21:07.151Z,78.93
2022-12-03T20:23:33.734Z,78.15
2022-12-03T20:26:00.511Z,78.54
2022-12-03T20:28:28.299Z,79.12
2022-12-03T20:31:02.741Z,79.10
2022-12-03T20:33:29.268Z,79.23
2022-12-03T20:35:56.921Z,79.28
2022-12-03T20:38:26.128Z,78.88
2022-12-03T20:40:53.839Z,78.82
2022-12-03T20:43:20.519Z,78.34
2022-12-03T20:45:46.913Z,78.56
2022-12-03T20:48:13.366Z,78.56
2022-12-03T20:50:39.871Z,78.44
2022-12-03T20:53:24.194Z,78.50
2022-12-03T20:55:58.477Z,78.39
2022-12-03T20:58:25.031Z,78.22
2022-12-03T21:00:51.561Z,78.38
2022-12-03T21:03:17.999Z,78.46
2022-12-03T21:05:44.434Z,78.38
2022-12-03T21:08:11.861Z,78.31
2022-12-03T21:10:45.870Z,78.39
2022-12-03T21:13:16.797Z,78.48
2022-12-03T21:15:44.234Z,78.41
2022-12-03T21:18:13.971Z,78.76
2022-12-03T21:20:45.656Z,78.90
2022-12-03T21:23:13.202Z,78.98
2022-12-03T21:25:40.391Z,78.95
2022-12-03T21:28:08.639Z,78.98
2022-12-03T21:30:38.374Z,78.81
2022-12-03T21:33:06.044Z,79.08
2022-12-03T21:35:32.642Z,78.65
2022-12-03T21:37:59.089Z,78.94
2022-12-03T21:40:25.407Z,78.85
2022-12-03T21:42:51.768Z,79.42
2022-12-03T21:45:18.218Z,78.81
2022-12-03T21:47:48.069Z,78.66
2022-12-03T21:50:14.639Z,78.17
2022-12-03T21:52:41.183Z,78.62
2022-12-03T21:55:07.891Z,78.16
2022-12-03T21:57:37.916Z,77.56
2022-12-03T22:00:07.678Z,77.60
2022-12-03T22:02:34.368Z,78.07
2022-12-03T22:05:00.742Z,77.86
2022-12-03T22:07:27.154Z,78.28
2022-12-03T22:09:53.947Z,77.79
2022-12-03T22:12:20.532Z,78.21
2022-12-03T22:14:46.875Z,78.73
2022-12-03T22:17:13.301Z,78.35
2022-12-03T22:19:39.844Z,78.27
2022-12-03T22:22:06.174Z,78.11
2022-12-03T22:24:32.534Z,78.38
2022-12-03T22:26:58.922Z,78.73
2022-12-03T22:29:25.303Z,78.45
2022-12-03T22:31:51.694Z,78.47
2022-12-03T22:34:18.049Z,78.67
2022-12-03T22:36:44.476Z,78.33
2022-12-03T22:39:10.905Z,78.48
2022-12-03T22:41:37.259Z,78.42
2022-12-03T22:44:03.872Z,78.95
2022-12-03T22:46:30.369Z,79.23
2022-12-03T22:49:00.515Z,79.67
2022-12-03T22:51:30.251Z,79.66
2022-12-03T22:53:58.451Z,80.26
2022-12-03T22:56:26.310Z,80.45
2022-12-03T22:58:52.605Z,80.45
2022-12-03T23:01:27.956Z,80.76
2022-12-03T23:03:54.644Z,81.11
2022-12-03T23:06:22.546Z,80.82
2022-12-03T23:08:49.042Z,80.78
2022-12-03T23:11:15.615Z,80.80
2022-12-03T23:13:42.396Z,80.42
2022-12-03T23:16:14.293Z,80.05
2022-12-03T23:18:41.084Z,79.66
2022-12-03T23:21:07.768Z,79.82
2022-12-03T23:23:34.264Z,79.26
2022-12-03T23:26:02.784Z,79.63
2022-12-03T23:28:30.938Z,79.51
2022-12-03T23:30:57.666Z,79.33
2022-12-03T23:33:24.441Z,79.50
2022-12-03T23:35:51.028Z,78.80
2022-12-03T23:38:17.744Z,79.88
2022-12-03T23:40:48.069Z,79.59
2022-12-03T23:43:15.278Z,79.44
2022-12-03T23:45:41.668Z,79.54
2022-12-03T23:48:08.048Z,79.26
2022-12-03T23:50:34.855Z,79.60
2022-12-03T23:53:01.236Z,78.81
2022-12-03T23:55:27.587Z,79.28
2022-12-03T23:57:53.926Z,79.73
